sensor_id;sensor_type;location;lat;lon;timestamp;P1;durP1;ratioP1;P2;durP2;ratioP2
66085;SDS011;52868;49.758;9.586;2023-02-15T00:01:24;31.02;;;8.35;;
66085;SDS011;52868;49.758;9.586;2023-02-15T00:03:50;27.80;;;9.43;;
66085;SDS011;52868;49.758;9.586;2023-02-15T00:06:16;33.65;;;9.15;;
66085;SDS011;52868;49.758;9.586;2023-02-15T00:08:42;34.22;;;8.95;;
66085;SDS011;52868;49.758;9.586;2023-02-15T00:11:09;28.52;;;8.77;;
66085;SDS011;52868;49.758;9.586;2023-02-15T00:13:36;35.90;;;9.38;;
66085;SDS011;52868;49.758;9.586;2023-02-15T00:16:04;29.85;;;7.70;;
66085;SDS011;52868;49.758;9.586;2023-02-15T00:18:32;30.38;;;8.05;;
66085;SDS011;52868;49.758;9.586;2023-02-15T00:20:58;28.42;;;8.85;;
66085;SDS011;52868;49.758;9.586;2023-02-15T00:23:28;31.90;;;8.00;;
66085;SDS011;52868;49.758;9.586;2023-02-15T00:26:02;40.42;;;9.45;;
66085;SDS011;52868;49.758;9.586;2023-02-15T00:28:29;28.38;;;8.40;;
66085;SDS011;52868;49.758;9.586;2023-02-15T00:31:01;34.53;;;9.50;;
66085;SDS011;52868;49.758;9.586;2023-02-15T00:33:31;33.03;;;8.98;;
66085;SDS011;52868;49.758;9.586;2023-02-15T00:35:57;32.42;;;9.27;;
66085;SDS011;52868;49.758;9.586;2023-02-15T00:38:23;24.02;;;7.40;;
66085;SDS011;52868;49.758;9.586;2023-02-15T00:40:56;30.52;;;9.05;;
66085;SDS011;52868;49.758;9.586;2023-02-15T00:43:23;28.80;;;8.68;;
66085;SDS011;52868;49.758;9.586;2023-02-15T00:45:50;30.90;;;8.60;;
66085;SDS011;52868;49.758;9.586;2023-02-15T00:48:16;30.60;;;8.70;;
66085;SDS011;52868;49.758;9.586;2023-02-15T00:50:41;37.30;;;8.93;;
66085;SDS011;52868;49.758;9.586;2023-02-15T00:53:10;31.87;;;9.10;;
66085;SDS011;52868;49.758;9.586;2023-02-15T00:55:36;39.95;;;9.10;;
66085;SDS011;52868;49.758;9.586;2023-02-15T00:58:01;29.92;;;8.68;;
66085;SDS011;52868;49.758;9.586;2023-02-15T01:00:28;37.38;;;9.77;;
66085;SDS011;52868;49.758;9.586;2023-02-15T01:02:54;30.95;;;9.20;;
66085;SDS011;52868;49.758;9.586;2023-02-15T01:05:20;33.67;;;8.95;;
66085;SDS011;52868;49.758;9.586;2023-02-15T01:07:45;39.63;;;9.05;;
66085;SDS011;52868;49.758;9.586;2023-02-15T01:10:11;27.88;;;8.32;;
66085;SDS011;52868;49.758;9.586;2023-02-15T01:12:36;31.48;;;9.48;;
66085;SDS011;52868;49.758;9.586;2023-02-15T01:15:02;32.72;;;8.73;;
66085;SDS011;52868;49.758;9.586;2023-02-15T01:17:28;29.80;;;8.15;;
66085;SDS011;52868;49.758;9.586;2023-02-15T01:19:53;34.15;;;10.00;;
66085;SDS011;52868;49.758;9.586;2023-02-15T01:22:19;35.67;;;8.15;;
66085;SDS011;52868;49.758;9.586;2023-02-15T01:24:44;37.15;;;9.80;;
66085;SDS011;52868;49.758;9.586;2023-02-15T01:27:10;32.63;;;9.98;;
66085;SDS011;52868;49.758;9.586;2023-02-15T01:29:36;29.02;;;8.40;;
66085;SDS011;52868;49.758;9.586;2023-02-15T01:32:02;21.48;;;6.68;;
66085;SDS011;52868;49.758;9.586;2023-02-15T01:34:28;45.00;;;10.32;;
66085;SDS011;52868;49.758;9.586;2023-02-15T01:36:54;34.28;;;9.55;;
66085;SDS011;52868;49.758;9.586;2023-02-15T01:39:19;40.08;;;9.25;;
66085;SDS011;52868;49.758;9.586;2023-02-15T01:41:45;34.15;;;9.23;;
66085;SDS011;52868;49.758;9.586;2023-02-15T01:47:08;36.15;;;8.98;;
66085;SDS011;52868;49.758;9.586;2023-02-15T01:49:36;35.60;;;9.87;;
66085;SDS011;52868;49.758;9.586;2023-02-15T01:54:32;32.33;;;9.85;;
66085;SDS011;52868;49.758;9.586;2023-02-15T01:57:02;40.90;;;9.30;;
66085;SDS011;52868;49.758;9.586;2023-02-15T01:59:31;29.33;;;9.55;;
66085;SDS011;52868;49.758;9.586;2023-02-15T02:01:58;36.75;;;10.20;;
66085;SDS011;52868;49.758;9.586;2023-02-15T02:04:29;35.53;;;8.77;;
66085;SDS011;52868;49.758;9.586;2023-02-15T02:07:00;32.38;;;8.30;;
66085;SDS011;52868;49.758;9.586;2023-02-15T02:09:27;36.33;;;8.98;;
66085;SDS011;52868;49.758;9.586;2023-02-15T02:11:54;35.65;;;9.95;;
66085;SDS011;52868;49.758;9.586;2023-02-15T02:14:19;35.15;;;9.32;;
66085;SDS011;52868;49.758;9.586;2023-02-15T02:27:47;36.45;;;8.60;;
66085;SDS011;52868;49.758;9.586;2023-02-15T02:30:37;35.22;;;8.30;;
66085;SDS011;52868;49.758;9.586;2023-02-15T02:33:15;31.67;;;7.72;;
66085;SDS011;52868;49.758;9.586;2023-02-15T02:35:55;27.35;;;7.97;;
66085;SDS011;52868;49.758;9.586;2023-02-15T02:46:50;39.63;;;8.57;;
66085;SDS011;52868;49.758;9.586;2023-02-15T02:49:38;33.47;;;9.07;;
66085;SDS011;52868;49.758;9.586;2023-02-15T02:52:06;24.60;;;6.45;;
66085;SDS011;52868;49.758;9.586;2023-02-15T02:54:52;38.47;;;8.50;;
66085;SDS011;52868;49.758;9.586;2023-02-15T02:57:19;27.95;;;8.80;;
66085;SDS011;52868;49.758;9.586;2023-02-15T02:59:48;40.00;;;9.37;;
66085;SDS011;52868;49.758;9.586;2023-02-15T03:02:20;29.15;;;8.55;;
66085;SDS011;52868;49.758;9.586;2023-02-15T03:04:52;45.08;;;9.57;;
66085;SDS011;52868;49.758;9.586;2023-02-15T03:07:24;28.35;;;8.73;;
66085;SDS011;52868;49.758;9.586;2023-02-15T03:09:53;32.45;;;9.10;;
66085;SDS011;52868;49.758;9.586;2023-02-15T03:12:23;35.50;;;9.88;;
66085;SDS011;52868;49.758;9.586;2023-02-15T03:14:56;29.05;;;9.45;;
66085;SDS011;52868;49.758;9.586;2023-02-15T03:17:29;31.05;;;7.93;;
66085;SDS011;52868;49.758;9.586;2023-02-15T03:19:59;34.80;;;8.80;;
66085;SDS011;52868;49.758;9.586;2023-02-15T03:22:39;27.98;;;8.23;;
66085;SDS011;52868;49.758;9.586;2023-02-15T03:25:14;25.65;;;8.23;;
66085;SDS011;52868;49.758;9.586;2023-02-15T03:27:47;26.25;;;7.80;;
66085;SDS011;52868;49.758;9.586;2023-02-15T03:30:15;32.72;;;7.80;;
66085;SDS011;52868;49.758;9.586;2023-02-15T03:32:45;26.05;;;7.72;;
66085;SDS011;52868;49.758;9.586;2023-02-15T03:35:13;20.92;;;6.45;;
66085;SDS011;52868;49.758;9.586;2023-02-15T03:40:23;36.42;;;8.30;;
66085;SDS011;52868;49.758;9.586;2023-02-15T03:43:20;27.15;;;7.45;;
66085;SDS011;52868;49.758;9.586;2023-02-15T03:45:56;23.00;;;7.55;;
66085;SDS011;52868;49.758;9.586;2023-02-15T03:48:39;24.55;;;6.53;;
66085;SDS011;52868;49.758;9.586;2023-02-15T03:51:09;27.13;;;7.45;;
66085;SDS011;52868;49.758;9.586;2023-02-15T03:53:58;27.42;;;7.10;;
66085;SDS011;52868;49.758;9.586;2023-02-15T03:56:59;19.27;;;6.45;;
66085;SDS011;52868;49.758;9.586;2023-02-15T03:59:44;21.40;;;6.75;;
66085;SDS011;52868;49.758;9.586;2023-02-15T04:02:30;24.30;;;7.35;;
66085;SDS011;52868;49.758;9.586;2023-02-15T04:05:05;21.45;;;6.75;;
66085;SDS011;52868;49.758;9.586;2023-02-15T04:07:31;15.57;;;4.63;;
66085;SDS011;52868;49.758;9.586;2023-02-15T04:09:56;19.15;;;5.85;;
66085;SDS011;52868;49.758;9.586;2023-02-15T04:12:40;18.27;;;5.68;;
66085;SDS011;52868;49.758;9.586;2023-02-15T04:15:08;17.15;;;6.45;;
66085;SDS011;52868;49.758;9.586;2023-02-15T04:17:55;20.70;;;6.97;;
66085;SDS011;52868;49.758;9.586;2023-02-15T04:20:21;19.15;;;5.97;;
66085;SDS011;52868;49.758;9.586;2023-02-15T04:23:06;20.23;;;6.95;;
66085;SDS011;52868;49.758;9.586;2023-02-15T04:25:50;23.90;;;7.88;;
66085;SDS011;52868;49.758;9.586;2023-02-15T04:28:16;22.55;;;6.78;;
66085;SDS011;52868;49.758;9.586;2023-02-15T04:30:42;17.85;;;6.18;;
66085;SDS011;52868;49.758;9.586;2023-02-15T04:33:07;19.00;;;6.10;;
66085;SDS011;52868;49.758;9.586;2023-02-15T04:35:33;19.48;;;7.10;;
66085;SDS011;52868;49.758;9.586;2023-02-15T04:37:59;19.20;;;6.35;;
66085;SDS011;52868;49.758;9.586;2023-02-15T04:40:25;18.13;;;6.22;;
66085;SDS011;52868;49.758;9.586;2023-02-15T04:42:50;22.33;;;6.88;;
66085;SDS011;52868;49.758;9.586;2023-02-15T04:45:16;18.30;;;5.70;;
66085;SDS011;52868;49.758;9.586;2023-02-15T04:47:42;24.02;;;7.38;;
66085;SDS011;52868;49.758;9.586;2023-02-15T04:50:08;18.75;;;7.00;;
66085;SDS011;52868;49.758;9.586;2023-02-15T04:52:34;16.77;;;6.13;;
66085;SDS011;52868;49.758;9.586;2023-02-15T04:55:00;16.33;;;6.18;;
66085;SDS011;52868;49.758;9.586;2023-02-15T04:57:26;17.60;;;5.88;;
66085;SDS011;52868;49.758;9.586;2023-02-15T04:59:51;19.55;;;5.93;;
66085;SDS011;52868;49.758;9.586;2023-02-15T05:02:17;19.10;;;6.00;;
66085;SDS011;52868;49.758;9.586;2023-02-15T05:04:42;21.05;;;6.40;;
66085;SDS011;52868;49.758;9.586;2023-02-15T05:07:08;19.88;;;6.22;;
66085;SDS011;52868;49.758;9.586;2023-02-15T05:09:34;20.45;;;6.13;;
66085;SDS011;52868;49.758;9.586;2023-02-15T05:11:59;18.45;;;5.60;;
66085;SDS011;52868;49.758;9.586;2023-02-15T05:14:25;16.42;;;6.10;;
66085;SDS011;52868;49.758;9.586;2023-02-15T05:16:51;15.73;;;5.65;;
66085;SDS011;52868;49.758;9.586;2023-02-15T05:19:18;18.58;;;6.65;;
66085;SDS011;52868;49.758;9.586;2023-02-15T05:21:49;18.40;;;6.05;;
66085;SDS011;52868;49.758;9.586;2023-02-15T05:24:15;20.48;;;6.78;;
66085;SDS011;52868;49.758;9.586;2023-02-15T05:26:59;15.63;;;6.32;;
66085;SDS011;52868;49.758;9.586;2023-02-15T05:29:43;21.30;;;6.50;;
66085;SDS011;52868;49.758;9.586;2023-02-15T05:32:09;18.80;;;6.13;;
66085;SDS011;52868;49.758;9.586;2023-02-15T05:34:38;16.52;;;6.57;;
66085;SDS011;52868;49.758;9.586;2023-02-15T05:37:03;15.45;;;5.68;;
66085;SDS011;52868;49.758;9.586;2023-02-15T05:39:29;17.05;;;6.07;;
66085;SDS011;52868;49.758;9.586;2023-02-15T05:41:57;19.98;;;6.13;;
66085;SDS011;52868;49.758;9.586;2023-02-15T05:44:24;18.10;;;5.78;;
66085;SDS011;52868;49.758;9.586;2023-02-15T05:46:50;14.82;;;5.20;;
66085;SDS011;52868;49.758;9.586;2023-02-15T05:49:16;18.92;;;5.88;;
66085;SDS011;52868;49.758;9.586;2023-02-15T05:51:41;18.58;;;5.95;;
66085;SDS011;52868;49.758;9.586;2023-02-15T05:54:07;21.42;;;6.05;;
66085;SDS011;52868;49.758;9.586;2023-02-15T05:56:32;14.38;;;5.95;;
66085;SDS011;52868;49.758;9.586;2023-02-15T05:58:58;17.95;;;5.65;;
66085;SDS011;52868;49.758;9.586;2023-02-15T06:01:24;15.25;;;5.38;;
66085;SDS011;52868;49.758;9.586;2023-02-15T06:03:49;17.80;;;6.57;;
66085;SDS011;52868;49.758;9.586;2023-02-15T06:06:15;15.50;;;6.30;;
66085;SDS011;52868;49.758;9.586;2023-02-15T06:08:41;16.48;;;5.38;;
66085;SDS011;52868;49.758;9.586;2023-02-15T06:11:07;13.38;;;5.40;;
66085;SDS011;52868;49.758;9.586;2023-02-15T06:13:33;14.73;;;5.53;;
66085;SDS011;52868;49.758;9.586;2023-02-15T06:15:59;15.60;;;5.72;;
66085;SDS011;52868;49.758;9.586;2023-02-15T06:18:25;20.95;;;7.55;;
66085;SDS011;52868;49.758;9.586;2023-02-15T06:20:50;15.32;;;5.35;;
66085;SDS011;52868;49.758;9.586;2023-02-15T06:23:16;14.75;;;5.45;;
66085;SDS011;52868;49.758;9.586;2023-02-15T06:25:43;16.38;;;5.65;;
66085;SDS011;52868;49.758;9.586;2023-02-15T06:28:10;19.83;;;5.88;;
66085;SDS011;52868;49.758;9.586;2023-02-15T06:30:35;18.92;;;5.57;;
66085;SDS011;52868;49.758;9.586;2023-02-15T06:33:01;15.13;;;5.18;;
66085;SDS011;52868;49.758;9.586;2023-02-15T06:35:27;17.45;;;6.05;;
66085;SDS011;52868;49.758;9.586;2023-02-15T06:37:53;52.22;;;15.60;;
66085;SDS011;52868;49.758;9.586;2023-02-15T06:40:18;34.80;;;12.13;;
66085;SDS011;52868;49.758;9.586;2023-02-15T06:42:44;22.70;;;8.40;;
66085;SDS011;52868;49.758;9.586;2023-02-15T06:45:10;17.00;;;6.32;;
66085;SDS011;52868;49.758;9.586;2023-02-15T06:47:37;22.63;;;6.28;;
66085;SDS011;52868;49.758;9.586;2023-02-15T06:50:03;45.80;;;14.00;;
66085;SDS011;52868;49.758;9.586;2023-02-15T06:52:30;35.70;;;11.48;;
66085;SDS011;52868;49.758;9.586;2023-02-15T06:54:55;23.73;;;8.30;;
66085;SDS011;52868;49.758;9.586;2023-02-15T06:57:21;38.45;;;10.25;;
66085;SDS011;52868;49.758;9.586;2023-02-15T06:59:46;28.00;;;7.95;;
66085;SDS011;52868;49.758;9.586;2023-02-15T07:02:12;22.77;;;6.97;;
66085;SDS011;52868;49.758;9.586;2023-02-15T07:04:38;16.90;;;6.47;;
66085;SDS011;52868;49.758;9.586;2023-02-15T07:07:04;21.75;;;7.13;;
66085;SDS011;52868;49.758;9.586;2023-02-15T07:09:34;28.42;;;9.50;;
66085;SDS011;52868;49.758;9.586;2023-02-15T07:11:59;15.57;;;6.53;;
66085;SDS011;52868;49.758;9.586;2023-02-15T07:14:43;27.58;;;7.80;;
66085;SDS011;52868;49.758;9.586;2023-02-15T07:17:09;27.33;;;8.07;;
66085;SDS011;52868;49.758;9.586;2023-02-15T07:19:36;24.73;;;8.55;;
66085;SDS011;52868;49.758;9.586;2023-02-15T07:22:01;17.38;;;6.28;;
66085;SDS011;52868;49.758;9.586;2023-02-15T07:24:28;17.58;;;6.32;;
66085;SDS011;52868;49.758;9.586;2023-02-15T07:26:54;17.05;;;6.70;;
66085;SDS011;52868;49.758;9.586;2023-02-15T07:29:19;24.05;;;7.22;;
66085;SDS011;52868;49.758;9.586;2023-02-15T07:31:45;16.17;;;5.38;;
66085;SDS011;52868;49.758;9.586;2023-02-15T07:34:11;17.40;;;6.63;;
66085;SDS011;52868;49.758;9.586;2023-02-15T07:36:37;15.40;;;5.72;;
66085;SDS011;52868;49.758;9.586;2023-02-15T07:39:02;20.92;;;7.35;;
66085;SDS011;52868;49.758;9.586;2023-02-15T07:41:28;15.90;;;6.15;;
66085;SDS011;52868;49.758;9.586;2023-02-15T07:43:54;19.80;;;6.70;;
66085;SDS011;52868;49.758;9.586;2023-02-15T07:46:19;16.17;;;6.35;;
66085;SDS011;52868;49.758;9.586;2023-02-15T07:48:45;18.13;;;7.22;;
66085;SDS011;52868;49.758;9.586;2023-02-15T07:51:12;19.83;;;6.53;;
66085;SDS011;52868;49.758;9.586;2023-02-15T07:53:39;20.98;;;6.43;;
66085;SDS011;52868;49.758;9.586;2023-02-15T07:56:07;22.92;;;7.43;;
66085;SDS011;52868;49.758;9.586;2023-02-15T07:58:35;19.15;;;6.47;;
66085;SDS011;52868;49.758;9.586;2023-02-15T08:01:17;16.83;;;5.47;;
66085;SDS011;52868;49.758;9.586;2023-02-15T08:03:46;19.27;;;5.65;;
66085;SDS011;52868;49.758;9.586;2023-02-15T08:06:12;17.73;;;5.57;;
66085;SDS011;52868;49.758;9.586;2023-02-15T08:08:38;19.13;;;6.28;;
66085;SDS011;52868;49.758;9.586;2023-02-15T08:11:05;14.68;;;5.22;;
66085;SDS011;52868;49.758;9.586;2023-02-15T08:14:27;14.88;;;5.70;;
66085;SDS011;52868;49.758;9.586;2023-02-15T08:21:45;17.00;;;6.70;;
66085;SDS011;52868;49.758;9.586;2023-02-15T08:24:13;14.48;;;5.43;;
66085;SDS011;52868;49.758;9.586;2023-02-15T08:26:40;16.38;;;5.47;;
66085;SDS011;52868;49.758;9.586;2023-02-15T08:29:07;16.45;;;6.30;;
66085;SDS011;52868;49.758;9.586;2023-02-15T08:31:33;15.93;;;6.35;;
66085;SDS011;52868;49.758;9.586;2023-02-15T08:34:00;16.30;;;6.05;;
66085;SDS011;52868;49.758;9.586;2023-02-15T08:36:27;16.92;;;6.28;;
66085;SDS011;52868;49.758;9.586;2023-02-15T08:38:54;13.48;;;5.20;;
66085;SDS011;52868;49.758;9.586;2023-02-15T08:41:23;17.08;;;6.45;;
66085;SDS011;52868;49.758;9.586;2023-02-15T08:43:52;19.60;;;6.00;;
66085;SDS011;52868;49.758;9.586;2023-02-15T08:46:19;34.97;;;9.88;;
66085;SDS011;52868;49.758;9.586;2023-02-15T08:48:45;24.95;;;8.25;;
66085;SDS011;52868;49.758;9.586;2023-02-15T08:51:13;18.67;;;5.95;;
66085;SDS011;52868;49.758;9.586;2023-02-15T08:53:47;20.45;;;7.32;;
66085;SDS011;52868;49.758;9.586;2023-02-15T08:56:15;19.00;;;6.45;;
66085;SDS011;52868;49.758;9.586;2023-02-15T08:58:41;15.65;;;5.95;;
66085;SDS011;52868;49.758;9.586;2023-02-15T09:01:10;17.75;;;6.07;;
66085;SDS011;52868;49.758;9.586;2023-02-15T09:03:38;18.17;;;5.88;;
66085;SDS011;52868;49.758;9.586;2023-02-15T09:06:04;18.65;;;6.55;;
66085;SDS011;52868;49.758;9.586;2023-02-15T09:08:30;16.55;;;6.20;;
66085;SDS011;52868;49.758;9.586;2023-02-15T09:11:06;19.80;;;6.32;;
66085;SDS011;52868;49.758;9.586;2023-02-15T09:13:35;13.97;;;5.20;;
66085;SDS011;52868;49.758;9.586;2023-02-15T09:16:02;20.58;;;5.40;;
66085;SDS011;52868;49.758;9.586;2023-02-15T09:18:30;13.13;;;5.30;;
66085;SDS011;52868;49.758;9.586;2023-02-15T09:21:03;12.60;;;5.35;;
66085;SDS011;52868;49.758;9.586;2023-02-15T09:23:30;22.02;;;7.10;;
66085;SDS011;52868;49.758;9.586;2023-02-15T09:25:55;15.60;;;5.38;;
66085;SDS011;52868;49.758;9.586;2023-02-15T09:28:21;15.82;;;6.30;;
66085;SDS011;52868;49.758;9.586;2023-02-15T09:30:47;14.95;;;5.05;;
66085;SDS011;52868;49.758;9.586;2023-02-15T09:33:12;24.67;;;7.53;;
66085;SDS011;52868;49.758;9.586;2023-02-15T09:35:38;18.10;;;7.18;;
66085;SDS011;52868;49.758;9.586;2023-02-15T09:38:03;17.35;;;6.38;;
66085;SDS011;52868;49.758;9.586;2023-02-15T09:40:30;19.98;;;7.13;;
66085;SDS011;52868;49.758;9.586;2023-02-15T09:43:05;17.92;;;6.57;;
66085;SDS011;52868;49.758;9.586;2023-02-15T09:48:43;13.73;;;5.88;;
66085;SDS011;52868;49.758;9.586;2023-02-15T09:56:57;16.42;;;5.28;;
66085;SDS011;52868;49.758;9.586;2023-02-15T10:10:24;15.75;;;6.57;;
66085;SDS011;52868;49.758;9.586;2023-02-15T10:18:42;22.23;;;6.27;;
66085;SDS011;52868;49.758;9.586;2023-02-15T10:26:47;23.35;;;8.68;;
66085;SDS011;52868;49.758;9.586;2023-02-15T10:34:43;22.75;;;8.40;;
66085;SDS011;52868;49.758;9.586;2023-02-15T10:47:56;15.07;;;5.50;;
66085;SDS011;52868;49.758;9.586;2023-02-15T10:50:43;18.50;;;6.78;;
66085;SDS011;52868;49.758;9.586;2023-02-15T11:01:23;21.83;;;7.07;;
66085;SDS011;52868;49.758;9.586;2023-02-15T11:07:39;15.77;;;7.07;;
66085;SDS011;52868;49.758;9.586;2023-02-15T11:12:55;18.45;;;6.72;;
66085;SDS011;52868;49.758;9.586;2023-02-15T11:17:57;17.42;;;6.82;;
66085;SDS011;52868;49.758;9.586;2023-02-15T11:23:00;19.10;;;6.82;;
66085;SDS011;52868;49.758;9.586;2023-02-15T11:25:31;21.75;;;6.95;;
66085;SDS011;52868;49.758;9.586;2023-02-15T11:27:59;21.35;;;7.45;;
66085;SDS011;52868;49.758;9.586;2023-02-15T11:30:42;21.75;;;6.38;;
66085;SDS011;52868;49.758;9.586;2023-02-15T11:33:15;22.90;;;6.75;;
66085;SDS011;52868;49.758;9.586;2023-02-15T11:38:38;20.88;;;6.82;;
66085;SDS011;52868;49.758;9.586;2023-02-15T11:43:42;22.02;;;8.55;;
66085;SDS011;52868;49.758;9.586;2023-02-15T11:46:12;17.00;;;7.20;;
66085;SDS011;52868;49.758;9.586;2023-02-15T11:48:39;23.25;;;8.32;;
66085;SDS011;52868;49.758;9.586;2023-02-15T11:51:08;20.60;;;7.50;;
66085;SDS011;52868;49.758;9.586;2023-02-15T11:53:39;20.85;;;7.35;;
66085;SDS011;52868;49.758;9.586;2023-02-15T11:56:04;31.42;;;9.07;;
66085;SDS011;52868;49.758;9.586;2023-02-15T11:58:41;21.65;;;7.72;;
66085;SDS011;52868;49.758;9.586;2023-02-15T12:01:21;22.02;;;8.27;;
66085;SDS011;52868;49.758;9.586;2023-02-15T12:04:20;20.98;;;7.40;;
66085;SDS011;52868;49.758;9.586;2023-02-15T12:06:55;22.10;;;7.20;;
66085;SDS011;52868;49.758;9.586;2023-02-15T12:14:50;22.60;;;7.03;;
66085;SDS011;52868;49.758;9.586;2023-02-15T12:17:21;23.55;;;6.88;;
66085;SDS011;52868;49.758;9.586;2023-02-15T12:20:19;18.13;;;6.35;;
66085;SDS011;52868;49.758;9.586;2023-02-15T12:23:00;19.75;;;7.47;;
66085;SDS011;52868;49.758;9.586;2023-02-15T12:25:40;19.80;;;6.85;;
66085;SDS011;52868;49.758;9.586;2023-02-15T12:31:21;17.13;;;7.00;;
66085;SDS011;52868;49.758;9.586;2023-02-15T12:33:52;19.13;;;7.07;;
66085;SDS011;52868;49.758;9.586;2023-02-15T12:36:29;16.00;;;6.07;;
66085;SDS011;52868;49.758;9.586;2023-02-15T12:41:43;20.70;;;6.88;;
66085;SDS011;52868;49.758;9.586;2023-02-15T12:49:29;22.05;;;6.75;;
66085;SDS011;52868;49.758;9.586;2023-02-15T12:51:57;19.55;;;7.10;;
66085;SDS011;52868;49.758;9.586;2023-02-15T12:54:36;21.80;;;8.30;;
66085;SDS011;52868;49.758;9.586;2023-02-15T12:57:27;20.90;;;7.53;;
66085;SDS011;52868;49.758;9.586;2023-02-15T12:59:56;18.70;;;7.68;;
66085;SDS011;52868;49.758;9.586;2023-02-15T13:02:31;17.60;;;7.32;;
66085;SDS011;52868;49.758;9.586;2023-02-15T13:08:00;27.90;;;7.80;;
66085;SDS011;52868;49.758;9.586;2023-02-15T13:10:28;23.73;;;7.80;;
66085;SDS011;52868;49.758;9.586;2023-02-15T13:13:08;20.52;;;8.27;;
66085;SDS011;52868;49.758;9.586;2023-02-15T13:15:36;25.50;;;8.60;;
66085;SDS011;52868;49.758;9.586;2023-02-15T13:18:05;21.02;;;7.57;;
66085;SDS011;52868;49.758;9.586;2023-02-15T13:20:40;20.13;;;7.93;;
66085;SDS011;52868;49.758;9.586;2023-02-15T13:23:41;21.67;;;8.35;;
66085;SDS011;52868;49.758;9.586;2023-02-15T13:25:59;22.73;;;7.88;;
66085;SDS011;52868;49.758;9.586;2023-02-15T13:31:19;18.45;;;6.30;;
66085;SDS011;52868;49.758;9.586;2023-02-15T13:33:51;19.35;;;7.50;;
66085;SDS011;52868;49.758;9.586;2023-02-15T13:38:50;23.67;;;8.02;;
66085;SDS011;52868;49.758;9.586;2023-02-15T13:44:43;22.55;;;7.57;;
66085;SDS011;52868;49.758;9.586;2023-02-15T13:47:27;18.13;;;7.38;;
66085;SDS011;52868;49.758;9.586;2023-02-15T14:01:45;25.87;;;9.27;;
66085;SDS011;52868;49.758;9.586;2023-02-15T14:09:50;26.83;;;8.20;;
66085;SDS011;52868;49.758;9.586;2023-02-15T14:12:30;23.98;;;7.97;;
66085;SDS011;52868;49.758;9.586;2023-02-15T14:20:44;20.05;;;7.78;;
66085;SDS011;52868;49.758;9.586;2023-02-15T14:26:19;28.23;;;8.60;;
66085;SDS011;52868;49.758;9.586;2023-02-15T14:28:52;29.90;;;9.52;;
66085;SDS011;52868;49.758;9.586;2023-02-15T14:31:57;31.38;;;9.50;;
66085;SDS011;52868;49.758;9.586;2023-02-15T14:34:24;26.80;;;9.45;;
66085;SDS011;52868;49.758;9.586;2023-02-15T14:36:56;30.88;;;10.48;;
66085;SDS011;52868;49.758;9.586;2023-02-15T14:42:28;21.73;;;7.53;;
66085;SDS011;52868;49.758;9.586;2023-02-15T14:45:05;21.43;;;7.90;;
66085;SDS011;52868;49.758;9.586;2023-02-15T14:48:01;18.60;;;7.07;;
66085;SDS011;52868;49.758;9.586;2023-02-15T14:50:39;19.52;;;6.82;;
66085;SDS011;52868;49.758;9.586;2023-02-15T15:01:17;21.80;;;7.88;;
66085;SDS011;52868;49.758;9.586;2023-02-15T15:04:01;19.98;;;7.75;;
66085;SDS011;52868;49.758;9.586;2023-02-15T15:06:32;21.65;;;7.22;;
66085;SDS011;52868;49.758;9.586;2023-02-15T15:11:45;20.05;;;7.20;;
66085;SDS011;52868;49.758;9.586;2023-02-15T15:16:57;27.50;;;8.25;;
66085;SDS011;52868;49.758;9.586;2023-02-15T15:22:17;22.75;;;9.00;;
66085;SDS011;52868;49.758;9.586;2023-02-15T15:38:38;26.15;;;9.68;;
66085;SDS011;52868;49.758;9.586;2023-02-15T15:41:16;23.40;;;7.45;;
66085;SDS011;52868;49.758;9.586;2023-02-15T15:47:05;24.67;;;8.52;;
66085;SDS011;52868;49.758;9.586;2023-02-15T15:49:39;33.33;;;10.88;;
66085;SDS011;52868;49.758;9.586;2023-02-15T15:52:12;25.95;;;9.77;;
66085;SDS011;52868;49.758;9.586;2023-02-15T15:54:40;30.42;;;10.20;;
66085;SDS011;52868;49.758;9.586;2023-02-15T15:59:51;26.73;;;9.63;;
66085;SDS011;52868;49.758;9.586;2023-02-15T16:02:18;25.15;;;8.45;;
66085;SDS011;52868;49.758;9.586;2023-02-15T16:04:44;27.15;;;9.15;;
66085;SDS011;52868;49.758;9.586;2023-02-15T16:12:36;24.20;;;8.77;;
66085;SDS011;52868;49.758;9.586;2023-02-15T16:15:25;22.33;;;7.55;;
66085;SDS011;52868;49.758;9.586;2023-02-15T16:17:52;34.35;;;9.90;;
66085;SDS011;52868;49.758;9.586;2023-02-15T16:20:29;22.38;;;8.40;;
66085;SDS011;52868;49.758;9.586;2023-02-15T16:28:51;23.13;;;8.07;;
66085;SDS011;52868;49.758;9.586;2023-02-15T16:31:19;22.30;;;8.57;;
66085;SDS011;52868;49.758;9.586;2023-02-15T16:33:47;28.20;;;9.65;;
66085;SDS011;52868;49.758;9.586;2023-02-15T16:41:21;27.63;;;9.48;;
66085;SDS011;52868;49.758;9.586;2023-02-15T16:43:49;24.77;;;9.15;;
66085;SDS011;52868;49.758;9.586;2023-02-15T16:46:16;27.88;;;9.63;;
66085;SDS011;52868;49.758;9.586;2023-02-15T16:48:50;19.02;;;7.00;;
66085;SDS011;52868;49.758;9.586;2023-02-15T16:51:20;26.65;;;8.82;;
66085;SDS011;52868;49.758;9.586;2023-02-15T16:53:48;22.48;;;8.32;;
66085;SDS011;52868;49.758;9.586;2023-02-15T16:56:14;28.88;;;8.45;;
66085;SDS011;52868;49.758;9.586;2023-02-15T17:01:08;23.38;;;8.18;;
66085;SDS011;52868;49.758;9.586;2023-02-15T17:03:38;25.08;;;9.30;;
66085;SDS011;52868;49.758;9.586;2023-02-15T17:06:16;24.83;;;8.90;;
66085;SDS011;52868;49.758;9.586;2023-02-15T17:08:47;20.40;;;8.57;;
66085;SDS011;52868;49.758;9.586;2023-02-15T17:11:14;22.50;;;9.18;;
66085;SDS011;52868;49.758;9.586;2023-02-15T17:16:30;31.20;;;10.85;;
66085;SDS011;52868;49.758;9.586;2023-02-15T17:18:59;28.38;;;8.18;;
66085;SDS011;52868;49.758;9.586;2023-02-15T17:21:36;31.52;;;9.10;;
66085;SDS011;52868;49.758;9.586;2023-02-15T17:24:06;26.10;;;8.00;;
66085;SDS011;52868;49.758;9.586;2023-02-15T17:26:42;24.08;;;8.88;;
66085;SDS011;52868;49.758;9.586;2023-02-15T17:32:17;25.98;;;8.73;;
66085;SDS011;52868;49.758;9.586;2023-02-15T17:34:47;24.50;;;8.40;;
66085;SDS011;52868;49.758;9.586;2023-02-15T17:39:54;31.60;;;9.20;;
66085;SDS011;52868;49.758;9.586;2023-02-15T17:42:21;24.58;;;9.25;;
66085;SDS011;52868;49.758;9.586;2023-02-15T17:44:47;22.45;;;8.52;;
66085;SDS011;52868;49.758;9.586;2023-02-15T17:47:14;25.40;;;8.80;;
66085;SDS011;52868;49.758;9.586;2023-02-15T17:49:42;27.40;;;9.27;;
66085;SDS011;52868;49.758;9.586;2023-02-15T17:52:11;30.02;;;8.88;;
66085;SDS011;52868;49.758;9.586;2023-02-15T17:54:39;26.63;;;9.23;;
66085;SDS011;52868;49.758;9.586;2023-02-15T17:57:23;37.58;;;12.68;;
66085;SDS011;52868;49.758;9.586;2023-02-15T17:59:51;26.75;;;9.27;;
66085;SDS011;52868;49.758;9.586;2023-02-15T18:02:35;25.48;;;9.85;;
66085;SDS011;52868;49.758;9.586;2023-02-15T18:05:19;22.90;;;8.05;;
66085;SDS011;52868;49.758;9.586;2023-02-15T18:08:05;24.10;;;8.52;;
66085;SDS011;52868;49.758;9.586;2023-02-15T18:10:54;22.42;;;7.72;;
66085;SDS011;52868;49.758;9.586;2023-02-15T18:13:38;25.35;;;7.93;;
66085;SDS011;52868;49.758;9.586;2023-02-15T18:16:04;29.65;;;9.00;;
66085;SDS011;52868;49.758;9.586;2023-02-15T18:18:30;27.35;;;9.40;;
66085;SDS011;52868;49.758;9.586;2023-02-15T18:20:56;28.02;;;10.20;;
66085;SDS011;52868;49.758;9.586;2023-02-15T18:23:21;31.88;;;9.98;;
66085;SDS011;52868;49.758;9.586;2023-02-15T18:25:47;25.75;;;9.25;;
66085;SDS011;52868;49.758;9.586;2023-02-15T18:28:12;26.88;;;9.43;;
66085;SDS011;52868;49.758;9.586;2023-02-15T18:30:39;28.00;;;9.02;;
66085;SDS011;52868;49.758;9.586;2023-02-15T18:33:23;30.13;;;10.45;;
66085;SDS011;52868;49.758;9.586;2023-02-15T18:35:56;34.15;;;11.38;;
66085;SDS011;52868;49.758;9.586;2023-02-15T18:38:21;28.10;;;9.88;;